Time;durP1;ratioP1;P1;durP2;ratioP2;P2;SDS_P1;SDS_P2;PMS_P1;PMS_P2;Temp;Humidity;BMP_temperature;BMP_pressure;BME280_temperature;BME280_humidity;BME280_pressure;Samples;Min_cycle;Max_cycle;Signal;HPM_P1;HPM_P2
2022/03/21 00:00:52;;;;;;;8.88;7.93;;;5.90;44.10;;;;;;5014423;28;20203;-56
2022/03/21 00:03:20;;;;;;;11.25;8.40;;;5.90;44.10;;;;;;5013722;28;20269;-57
2022/03/21 00:05:48;;;;;;;14.80;8.38;;;5.90;44.30;;;;;;5014098;28;20207;-56
2022/03/21 00:08:19;;;;;;;9.45;8.30;;;5.90;44.40;;;;;;5013907;28;20207;-56
2022/03/21 00:10:48;;;;;;;11.10;8.25;;;5.80;44.30;;;;;;5013308;28;20194;-56
2022/03/21 00:13:16;;;;;;;13.50;9.30;;;5.80;44.40;;;;;;5013053;28;20234;-56
2022/03/21 00:15:44;;;;;;;11.38;8.38;;;5.80;44.50;;;;;;5013180;28;20234;-56
2022/03/21 00:18:13;;;;;;;12.02;8.82;;;5.70;44.60;;;;;;5013683;28;20203;-56
2022/03/21 00:20:41;;;;;;;9.48;8.52;;;5.70;44.70;;;;;;5013459;28;20231;-56
2022/03/21 00:23:09;;;;;;;11.73;8.90;;;5.70;44.80;;;;;;5013025;28;20218;-56
2022/03/21 00:25:36;;;;;;;10.85;8.90;;;5.70;44.90;;;;;;5016209;28;20625;-56
2022/03/21 00:28:05;;;;;;;11.43;8.82;;;5.70;45.00;;;;;;5017573;28;20206;-56
2022/03/21 00:30:32;;;;;;;9.77;8.15;;;5.60;45.00;;;;;;5017603;28;20210;-56
2022/03/21 00:32:59;;;;;;;9.02;7.85;;;5.60;45.10;;;;;;5017247;28;20703;-57
2022/03/21 00:35:27;;;;;;;12.40;8.82;;;5.60;45.20;;;;;;5017419;28;20222;-56
2022/03/21 00:37:54;;;;;;;10.43;8.68;;;5.60;45.30;;;;;;5017269;28;20207;-57
2022/03/21 00:40:21;;;;;;;9.82;8.45;;;5.60;45.40;;;;;;5017864;28;20210;-56
2022/03/21 00:42:50;;;;;;;11.00;8.50;;;5.50;45.30;;;;;;5017171;28;20226;-56
2022/03/21 00:45:21;;;;;;;11.40;8.25;;;5.50;45.40;;;;;;5017016;28;20203;-56
2022/03/21 00:47:49;;;;;;;11.25;8.63;;;5.60;45.60;;;;;;5017352;28;20190;-56
2022/03/21 00:50:18;;;;;;;11.50;9.20;;;5.50;45.50;;;;;;5016632;28;20203;-56
2022/03/21 00:52:47;;;;;;;12.10;9.20;;;5.50;45.60;;;;;;5018752;28;20206;-57
2022/03/21 00:55:15;;;;;;;11.43;7.85;;;5.50;45.70;;;;;;5018547;28;20227;-56
2022/03/21 00:57:44;;;;;;;12.38;8.73;;;5.50;45.80;;;;;;5018609;28;20206;-56
2022/03/21 01:00:13;;;;;;;13.43;9.13;;;5.40;45.80;;;;;;5018805;28;20214;-56
2022/03/21 01:05:16;;;;;;;11.98;8.60;;;5.40;45.80;;;;;;5044264;28;20226;-54
2022/03/21 01:07:44;;;;;;;10.05;7.82;;;5.40;46.00;;;;;;5041984;28;20655;-56
2022/03/21 01:10:13;;;;;;;13.75;9.20;;;5.40;46.00;;;;;;5040249;28;20202;-56
2022/03/21 01:12:41;;;;;;;9.38;8.45;;;5.40;46.00;;;;;;5039136;28;20206;-55
2022/03/21 01:15:10;;;;;;;11.05;8.70;;;5.40;46.10;;;;;;5039502;28;20226;-55
2022/03/21 01:17:37;;;;;;;11.63;8.43;;;5.30;46.10;;;;;;5038767;28;20222;-56
2022/03/21 01:20:05;;;;;;;12.77;9.77;;;5.30;46.10;;;;;;5039024;28;20221;-55
2022/03/21 01:22:33;;;;;;;11.52;8.93;;;5.30;46.20;;;;;;5037985;28;20202;-56
2022/03/21 01:25:01;;;;;;;13.23;9.85;;;5.30;46.30;;;;;;5037400;28;20686;-55
2022/03/21 01:27:29;;;;;;;12.05;8.32;;;5.30;46.40;;;;;;5038057;28;20671;-55
2022/03/21 01:29:56;;;;;;;10.52;8.55;;;5.20;46.40;;;;;;5037617;28;20542;-56
2022/03/21 01:32:23;;;;;;;14.77;9.05;;;5.20;46.50;;;;;;5036647;28;20202;-56
2022/03/21 01:34:50;;;;;;;11.82;9.93;;;5.20;46.60;;;;;;5036382;28;20226;-56
2022/03/21 01:37:17;;;;;;;14.80;9.32;;;5.20;46.70;;;;;;5035782;28;20210;-57
2022/03/21 01:39:46;;;;;;;14.80;8.95;;;5.20;46.80;;;;;;5036501;28;20213;-56
2022/03/21 01:42:14;;;;;;;12.25;9.13;;;5.20;46.90;;;;;;5036331;28;20207;-56
2022/03/21 01:44:41;;;;;;;10.95;9.38;;;5.10;46.90;;;;;;5035960;28;20566;-55
2022/03/21 01:47:09;;;;;;;12.90;9.93;;;5.10;47.00;;;;;;5036316;28;20206;-57
2022/03/21 01:49:36;;;;;;;12.82;9.13;;;5.00;47.10;;;;;;5035971;28;20209;-55
2022/03/21 01:52:04;;;;;;;10.50;8.90;;;5.00;47.20;;;;;;5036216;28;20685;-55
2022/03/21 01:57:17;;;;;;;12.30;9.05;;;4.90;47.30;;;;;;5039941;28;20185;-55
2022/03/21 01:59:44;;;;;;;16.08;9.73;;;5.00;47.50;;;;;;5041193;28;20210;-55
2022/03/21 02:02:12;;;;;;;14.48;10.50;;;4.90;47.40;;;;;;5038355;28;20207;-57
2022/03/21 02:04:39;;;;;;;12.57;9.13;;;4.90;47.50;;;;;;5041540;28;20325;-55
2022/03/21 02:07:06;;;;;;;13.88;10.38;;;4.90;47.60;;;;;;5042983;28;20206;-55
2022/03/21 02:09:34;;;;;;;12.02;9.38;;;4.90;47.70;;;;;;5047824;28;20206;-55
2022/03/21 02:12:01;;;;;;;10.80;9.10;;;4.80;47.70;;;;;;5045679;28;20207;-56
2022/03/21 02:14:30;;;;;;;15.63;10.40;;;4.80;47.80;;;;;;5042657;28;20249;-56
2022/03/21 02:16:57;;;;;;;12.07;9.02;;;4.80;47.90;;;;;;5044749;28;20209;-55
2022/03/21 02:19:29;;;;;;;15.57;9.43;;;4.80;48.10;;;;;;5048409;28;20202;-56
2022/03/21 02:22:09;;;;;;;12.80;9.82;;;4.70;48.00;;;;;;5051770;28;20252;-56
2022/03/21 02:24:46;;;;;;;12.95;9.98;;;4.70;48.10;;;;;;5048960;28;20222;-55
2022/03/21 02:27:16;;;;;;;12.30;9.60;;;4.70;48.10;;;;;;5039449;28;20190;-57
2022/03/21 02:29:44;;;;;;;11.75;9.18;;;4.70;48.10;;;;;;5038783;28;20194;-56
2022/03/21 02:32:12;;;;;;;11.48;8.93;;;4.70;48.20;;;;;;5041533;28;20202;-55
2022/03/21 02:34:40;;;;;;;12.57;10.15;;;4.70;48.30;;;;;;5041484;28;20241;-56
2022/03/21 02:37:10;;;;;;;11.73;9.32;;;4.70;48.30;;;;;;5042218;28;20206;-53
2022/03/21 02:39:38;;;;;;;14.98;10.10;;;4.60;48.40;;;;;;5042160;28;20189;-56
2022/03/21 02:42:06;;;;;;;13.05;9.40;;;4.60;48.50;;;;;;5038543;28;20202;-54
2022/03/21 02:44:36;;;;;;;13.27;9.25;;;4.60;48.50;;;;;;5038037;28;20222;-56
2022/03/21 02:47:03;;;;;;;15.45;9.40;;;4.50;48.40;;;;;;5038246;28;20202;-56
2022/03/21 02:49:31;;;;;;;10.77;8.88;;;4.50;48.60;;;;;;5035970;28;20202;-55
2022/03/21 02:52:00;;;;;;;12.05;9.60;;;4.50;48.70;;;;;;5035570;28;20198;-56
2022/03/21 02:54:27;;;;;;;13.65;9.15;;;4.50;48.80;;;;;;5034949;28;20226;-55
2022/03/21 02:56:55;;;;;;;10.82;8.90;;;4.50;48.90;;;;;;5035164;28;20209;-56
2022/03/21 02:59:23;;;;;;;10.68;8.90;;;4.50;49.00;;;;;;5034821;28;20209;-55
2022/03/21 03:01:53;;;;;;;10.82;9.27;;;4.40;49.00;;;;;;5034800;28;20209;-55
2022/03/21 03:04:20;;;;;;;10.95;8.98;;;4.40;49.10;;;;;;5034317;28;20237;-54
2022/03/21 03:06:47;;;;;;;10.98;9.77;;;4.40;49.20;;;;;;5035016;28;20237;-56
2022/03/21 03:09:15;;;;;;;13.07;9.38;;;4.40;49.20;;;;;;5035114;28;20210;-55
2022/03/21 03:11:42;;;;;;;10.95;9.55;;;4.40;49.30;;;;;;5034509;28;20214;-56
2022/03/21 03:14:09;;;;;;;13.65;9.35;;;4.40;49.40;;;;;;5048207;28;20222;-56
2022/03/21 03:16:36;;;;;;;15.35;9.00;;;4.30;49.40;;;;;;5046615;28;20598;-55
2022/03/21 03:19:05;;;;;;;13.60;10.20;;;4.30;49.50;;;;;;5042714;28;20213;-54
2022/03/21 03:21:35;;;;;;;15.65;10.05;;;4.30;49.80;;;;;;5036425;28;20202;-54
2022/03/21 03:24:04;;;;;;;14.45;10.18;;;4.20;49.90;;;;;;5034613;28;20225;-54
2022/03/21 03:26:31;;;;;;;12.65;9.98;;;4.10;50.00;;;;;;5034361;28;20217;-55
2022/03/21 03:28:59;;;;;;;11.52;9.45;;;4.10;50.10;;;;;;5034430;28;20209;-55
2022/03/21 03:31:26;;;;;;;12.52;9.40;;;4.10;50.30;;;;;;5034509;28;20209;-55
2022/03/21 03:33:54;;;;;;;12.38;9.20;;;4.00;50.40;;;;;;5034359;28;20257;-54
2022/03/21 03:36:22;;;;;;;13.98;9.35;;;4.00;50.60;;;;;;5034892;28;20233;-55
2022/03/21 03:38:51;;;;;;;13.02;9.98;;;4.00;50.80;;;;;;5033738;28;20209;-56
2022/03/21 03:41:19;;;;;;;12.15;9.63;;;3.90;50.80;;;;;;5033605;28;20671;-56
2022/03/21 03:43:47;;;;;;;10.40;8.98;;;3.90;51.00;;;;;;5033373;28;20226;-55
2022/03/21 03:46:16;;;;;;;13.30;10.13;;;3.80;51.10;;;;;;5033227;28;20202;-56
2022/03/21 03:48:43;;;;;;;13.52;10.38;;;3.80;51.20;;;;;;5033588;28;20210;-55
2022/03/21 03:51:11;;;;;;;14.55;10.23;;;3.80;51.30;;;;;;5033690;28;20202;-56
2022/03/21 03:53:40;;;;;;;10.68;9.57;;;3.70;51.30;;;;;;5034251;28;20586;-55
2022/03/21 03:56:08;;;;;;;13.43;9.38;;;3.70;51.50;;;;;;5033895;28;20229;-55
2022/03/21 03:58:35;;;;;;;13.70;9.68;;;3.70;51.60;;;;;;5037154;28;20690;-55
2022/03/21 04:01:04;;;;;;;13.68;10.55;;;3.70;51.70;;;;;;5036489;28;20213;-56
2022/03/21 04:03:46;;;;;;;12.55;11.07;;;3.70;51.80;;;;;;5035936;28;20682;-55
2022/03/21 04:09:31;;;;;;;12.90;9.05;;;3.70;51.70;;;;;;5112117;27;20544;-54
2022/03/21 04:11:59;;;;;;;11.77;9.27;;;3.60;52.00;;;;;;5111468;28;20205;-55
2022/03/21 04:14:27;;;;;;;14.70;11.13;;;3.60;52.10;;;;;;5111056;28;20722;-55
2022/03/21 04:16:54;;;;;;;12.43;10.38;;;3.60;52.20;;;;;;5110810;28;20210;-56
2022/03/21 04:19:21;;;;;;;14.43;10.60;;;3.60;52.30;;;;;;5110848;28;20200;-54
2022/03/21 04:21:49;;;;;;;14.18;10.52;;;3.60;52.40;;;;;;5110777;28;20210;-55
2022/03/21 04:24:16;;;;;;;15.30;11.07;;;3.60;52.60;;;;;;5110506;28;20220;-56
2022/03/21 04:26:44;;;;;;;15.68;11.23;;;3.50;52.60;;;;;;5111106;28;20211;-55
2022/03/21 04:29:11;;;;;;;12.10;9.32;;;3.60;52.70;;;;;;5110826;28;20228;-55
2022/03/21 04:31:38;;;;;;;14.32;10.98;;;3.50;52.80;;;;;;5110454;28;20218;-56
2022/03/21 04:34:07;;;;;;;13.80;9.40;;;3.50;52.90;;;;;;5110769;28;20230;-55
2022/03/21 04:36:34;;;;;;;13.65;10.98;;;3.50;52.90;;;;;;5110767;28;20199;-56
2022/03/21 04:39:01;;;;;;;12.25;10.05;;;3.50;53.10;;;;;;5110714;28;20222;-55
2022/03/21 04:41:28;;;;;;;12.73;9.85;;;3.50;53.20;;;;;;5110578;28;20216;-57
2022/03/21 04:43:56;;;;;;;15.93;10.77;;;3.40;53.20;;;;;;5110672;28;20228;-56
2022/03/21 04:46:24;;;;;;;14.45;10.90;;;3.40;53.30;;;;;;5110879;28;20207;-55
2022/03/21 04:48:51;;;;;;;11.98;9.75;;;3.40;53.40;;;;;;5110036;28;20563;-55
2022/03/21 04:51:18;;;;;;;14.73;10.55;;;3.40;53.50;;;;;;5110250;28;20199;-55
2022/03/21 04:53:45;;;;;;;14.65;11.05;;;3.40;53.50;;;;;;5110347;28;20228;-55
2022/03/21 04:56:13;;;;;;;16.30;10.73;;;3.40;53.60;;;;;;5110520;28;20202;-55
2022/03/21 04:58:40;;;;;;;13.75;10.30;;;3.40;53.60;;;;;;5110548;28;20247;-55
2022/03/21 05:01:08;;;;;;;14.25;10.32;;;3.40;53.80;;;;;;5110412;28;20204;-56
2022/03/21 05:03:35;;;;;;;14.38;10.43;;;3.40;53.90;;;;;;5111136;28;20220;-53
2022/03/21 05:06:03;;;;;;;15.68;10.90;;;3.40;54.00;;;;;;5110589;28;20203;-54
2022/03/21 05:08:30;;;;;;;15.65;10.85;;;3.40;54.10;;;;;;5123147;28;20260;-55
2022/03/21 05:10:57;;;;;;;13.70;10.25;;;3.30;54.20;;;;;;5131723;28;20666;-54
2022/03/21 05:13:25;;;;;;;14.32;10.48;;;3.40;54.40;;;;;;5132295;28;20223;-56
2022/03/21 05:15:52;;;;;;;14.40;10.27;;;3.30;54.50;;;;;;5133051;28;20204;-54
2022/03/21 05:18:21;;;;;;;14.45;10.70;;;3.30;54.50;;;;;;5131852;28;20199;-56
2022/03/21 05:20:48;;;;;;;12.95;9.85;;;3.30;54.70;;;;;;5118958;28;20206;-55
2022/03/21 05:31:29;;;;;;;16.17;11.15;;;3.30;55.20;;;;;;5117112;28;20187;-55
2022/03/21 05:36:42;;;;;;;14.02;11.10;;;3.30;55.30;;;;;;5117141;28;20245;-55
2022/03/21 05:39:09;;;;;;;14.98;11.73;;;3.30;55.50;;;;;;5117492;28;20563;-52
2022/03/21 05:41:36;;;;;;;14.75;11.75;;;3.40;55.60;;;;;;5117840;28;20203;-56
2022/03/21 05:44:03;;;;;;;14.35;12.38;;;3.40;55.60;;;;;;5116569;28;20234;-56
2022/03/21 05:46:30;;;;;;;15.00;10.93;;;3.40;55.60;;;;;;5116496;28;20199;-55
2022/03/21 05:49:02;;;;;;;18.80;11.57;;;3.50;55.70;;;;;;5116008;28;20577;-56
2022/03/21 05:51:30;;;;;;;15.93;11.52;;;3.60;55.70;;;;;;5116506;28;20184;-54
2022/03/21 05:53:59;;;;;;;17.73;11.95;;;3.60;55.60;;;;;;5116010;28;20215;-54
2022/03/21 05:56:27;;;;;;;22.60;11.05;;;3.70;55.70;;;;;;5116154;28;20206;-55
2022/03/21 05:58:55;;;;;;;19.45;12.63;;;3.80;55.60;;;;;;5127449;28;20289;-55
2022/03/21 06:01:23;;;;;;;16.88;12.23;;;3.80;55.50;;;;;;5126266;28;20204;-55
2022/03/21 06:03:52;;;;;;;14.98;11.52;;;3.90;55.50;;;;;;5122801;28;20226;-55
2022/03/21 06:06:21;;;;;;;16.50;11.50;;;4.00;55.40;;;;;;5117479;28;20195;-55
2022/03/21 06:08:49;;;;;;;15.95;11.38;;;4.00;55.20;;;;;;5116196;28;20726;-54
2022/03/21 06:11:16;;;;;;;20.67;13.10;;;4.10;55.20;;;;;;5116267;28;20195;-56
2022/03/21 06:13:43;;;;;;;16.85;11.63;;;4.10;55.10;;;;;;5116123;28;20219;-56
2022/03/21 06:16:11;;;;;;;14.85;12.15;;;4.20;55.10;;;;;;5116713;28;20241;-56
2022/03/21 06:18:39;;;;;;;17.75;11.27;;;4.20;55.00;;;;;;5113181;28;20565;-56
2022/03/21 06:21:08;;;;;;;13.88;11.60;;;4.20;54.90;;;;;;5115221;28;20689;-55
2022/03/21 06:23:37;;;;;;;16.15;11.15;;;4.20;54.90;;;;;;5115588;28;20211;-57
2022/03/21 06:26:05;;;;;;;18.30;12.13;;;4.30;54.90;;;;;;5114246;28;20195;-57
2022/03/21 06:28:33;;;;;;;12.27;10.80;;;4.30;54.90;;;;;;5112767;28;20593;-56
2022/03/21 06:31:00;;;;;;;19.02;12.00;;;4.40;54.90;;;;;;5113398;28;20208;-56
2022/03/21 06:33:28;;;;;;;18.83;12.07;;;4.40;54.80;;;;;;5115691;28;20216;-56
2022/03/21 06:36:10;;;;;;;16.13;12.15;;;4.50;54.70;;;;;;5115668;28;20209;-55
2022/03/21 06:38:40;;;;;;;17.73;11.75;;;4.50;54.50;;;;;;5114910;28;20241;-54
2022/03/21 06:41:07;;;;;;;17.15;12.77;;;4.60;54.50;;;;;;5114580;28;20690;-56
2022/03/21 06:43:34;;;;;;;18.35;12.90;;;4.60;54.40;;;;;;5114229;28;20435;-56
2022/03/21 06:46:01;;;;;;;16.52;12.80;;;4.60;54.50;;;;;;5115134;28;20203;-57
2022/03/21 06:48:28;;;;;;;15.27;12.73;;;4.70;54.60;;;;;;5114315;28;20219;-54
2022/03/21 06:50:56;;;;;;;24.10;14.23;;;4.80;54.40;;;;;;5115312;28;20278;-57
2022/03/21 06:53:23;;;;;;;13.65;11.18;;;4.80;54.10;;;;;;5114909;28;20223;-56
2022/03/21 06:55:53;;;;;;;20.02;12.40;;;4.90;54.00;;;;;;5114191;28;20195;-57
2022/03/21 06:58:20;;;;;;;16.65;12.82;;;5.00;53.80;;;;;;5114892;28;20219;-56
2022/03/21 07:00:48;;;;;;;19.10;12.57;;;5.00;53.50;;;;;;5114785;28;20675;-56
2022/03/21 07:03:16;;;;;;;16.92;12.65;;;5.10;53.40;;;;;;5113706;28;20233;-55
2022/03/21 07:05:44;;;;;;;16.23;11.63;;;5.20;53.20;;;;;;5108854;23;20287;-56
2022/03/21 07:08:11;;;;;;;14.60;11.48;;;5.30;53.00;;;;;;5052400;28;20237;-57
2022/03/21 07:10:40;;;;;;;16.63;13.10;;;5.30;52.80;;;;;;5053324;28;20251;-57
2022/03/21 07:13:09;;;;;;;14.05;12.02;;;5.40;52.70;;;;;;5053690;28;20201;-55
2022/03/21 07:15:38;;;;;;;16.55;12.88;;;5.50;52.60;;;;;;5038012;28;20218;-56
2022/03/21 07:18:06;;;;;;;16.83;12.48;;;5.60;52.50;;;;;;5034104;28;20209;-56
2022/03/21 07:20:34;;;;;;;19.58;13.40;;;5.70;52.30;;;;;;5033660;28;20199;-56
2022/03/21 07:23:01;;;;;;;18.80;13.50;;;5.70;52.00;;;;;;5032916;28;20305;-56
2022/03/21 07:25:29;;;;;;;15.40;12.45;;;5.80;51.90;;;;;;5032321;28;20309;-58
2022/03/21 07:27:57;;;;;;;18.63;13.07;;;5.90;51.70;;;;;;5032923;28;20206;-57
2022/03/21 07:30:26;;;;;;;17.95;13.38;;;6.00;51.60;;;;;;5031779;28;20457;-57
2022/03/21 07:32:53;;;;;;;19.25;14.00;;;6.20;51.50;;;;;;5032373;28;20446;-57
2022/03/21 07:35:20;;;;;;;17.00;13.80;;;6.20;51.30;;;;;;5033257;28;20249;-57
2022/03/21 07:37:50;;;;;;;17.92;13.90;;;6.30;51.20;;;;;;5032453;28;20202;-56
2022/03/21 07:40:18;;;;;;;17.90;13.52;;;6.40;51.10;;;;;;5032809;28;20301;-55
2022/03/21 07:42:46;;;;;;;19.98;13.43;;;6.50;51.00;;;;;;5032407;28;20194;-55
2022/03/21 07:48:01;;;;;;;18.70;13.35;;;6.70;50.60;;;;;;5032774;28;20576;-54
2022/03/21 07:50:29;;;;;;;16.67;13.25;;;6.90;51.10;;;;;;5033045;28;20222;-55
2022/03/21 07:52:57;;;;;;;16.25;13.85;;;7.00;50.30;;;;;;5032131;28;20241;-56
2022/03/21 07:55:24;;;;;;;15.50;12.10;;;7.10;50.00;;;;;;5032862;28;20280;-56
2022/03/21 07:57:51;;;;;;;19.00;13.30;;;7.20;49.90;;;;;;5033911;28;20213;-53
2022/03/21 08:00:19;;;;;;;23.52;15.43;;;7.40;49.70;;;;;;5033805;28;20195;-55
2022/03/21 08:02:46;;;;;;;16.10;13.40;;;7.50;49.50;;;;;;5035257;28;20237;-57
2022/03/21 08:05:15;;;;;;;14.20;12.63;;;7.70;49.30;;;;;;5034260;28;20234;-57
2022/03/21 08:07:43;;;;;;;17.45;13.07;;;7.80;49.10;;;;;;5032651;28;20198;-53
2022/03/21 08:10:11;;;;;;;16.00;12.82;;;7.90;48.80;;;;;;5033138;28;20246;-57
2022/03/21 08:12:42;;;;;;;18.15;12.48;;;8.00;48.50;;;;;;5034136;28;20202;-56
2022/03/21 08:15:11;;;;;;;19.48;14.38;;;8.10;48.40;;;;;;5033838;28;20230;-56
2022/03/21 08:17:49;;;;;;;15.45;12.80;;;8.20;48.20;;;;;;5031673;28;20733;-58
2022/03/21 08:20:19;;;;;;;16.38;12.63;;;8.40;48.10;;;;;;5014601;28;20184;-57
2022/03/21 08:22:47;;;;;;;18.48;14.27;;;8.50;47.70;;;;;;5016546;28;20217;-59
2022/03/21 08:25:15;;;;;;;15.10;12.90;;;8.60;47.30;;;;;;5015774;28;20238;-58
2022/03/21 08:27:43;;;;;;;16.33;12.52;;;8.60;47.00;;;;;;5029862;28;20363;-59
2022/03/21 08:30:11;;;;;;;16.92;14.45;;;8.70;46.70;;;;;;5035427;28;20268;-59
2022/03/21 08:32:39;;;;;;;15.52;13.40;;;8.70;46.30;;;;;;5034709;28;20234;-60
2022/03/21 08:35:06;;;;;;;15.60;13.00;;;8.90;46.30;;;;;;5036782;28;20226;-56
2022/03/21 08:37:35;;;;;;;16.38;14.05;;;9.00;46.10;;;;;;5035343;28;20308;-55
2022/03/21 08:40:02;;;;;;;21.20;14.85;;;9.10;45.80;;;;;;5034345;28;20736;-56
2022/03/21 08:42:30;;;;;;;16.70;12.75;;;9.20;45.60;;;;;;5033582;28;20226;-57
2022/03/21 08:44:57;;;;;;;17.30;14.25;;;9.30;45.40;;;;;;5033424;28;20230;-57
2022/03/21 08:47:26;;;;;;;19.05;13.40;;;9.30;45.10;;;;;;5032997;28;20683;-57
2022/03/21 08:49:53;;;;;;;18.60;14.57;;;9.40;45.00;;;;;;5032713;28;20226;-58
2022/03/21 08:52:20;;;;;;;19.35;13.40;;;9.50;45.00;;;;;;5033277;28;20965;-56
2022/03/21 08:54:49;;;;;;;19.03;14.57;;;9.60;44.80;;;;;;5034652;28;20245;-57
2022/03/21 08:57:16;;;;;;;16.90;13.80;;;9.70;44.50;;;;;;5035748;28;20545;-53
2022/03/21 08:59:44;;;;;;;15.48;13.80;;;9.80;44.40;;;;;;5036131;28;20444;-56
2022/03/21 09:02:12;;;;;;;17.42;14.80;;;9.80;44.10;;;;;;5037297;28;20198;-56
2022/03/21 09:04:39;;;;;;;16.57;13.77;;;9.80;43.90;;;;;;5035334;28;20300;-58
2022/03/21 09:07:08;;;;;;;17.17;14.00;;;9.90;43.90;;;;;;5036387;28;20464;-56
2022/03/21 09:09:35;;;;;;;16.57;14.77;;;9.90;43.80;;;;;;5036059;28;20276;-56
2022/03/21 09:12:04;;;;;;;18.10;14.53;;;10.10;42.80;;;;;;5035229;28;20460;-56
2022/03/21 09:14:31;;;;;;;15.87;13.93;;;10.20;42.60;;;;;;5035752;28;20465;-56
2022/03/21 09:16:58;;;;;;;21.60;15.67;;;10.30;42.50;;;;;;5035418;28;20948;-56
2022/03/21 09:19:25;;;;;;;16.23;14.30;;;10.40;42.40;;;;;;5035069;28;20464;-56
2022/03/21 09:21:53;;;;;;;17.63;13.73;;;10.50;42.30;;;;;;5036008;28;20815;-58
2022/03/21 09:24:20;;;;;;;18.27;14.03;;;10.60;42.10;;;;;;5035202;28;20502;-58
2022/03/21 09:26:47;;;;;;;22.83;15.07;;;10.70;42.00;;;;;;5034809;28;20452;-57
2022/03/21 09:29:16;;;;;;;18.67;16.23;;;10.80;41.70;;;;;;5035657;28;20483;-57
2022/03/21 09:31:43;;;;;;;16.33;14.60;;;10.90;41.50;;;;;;5034519;28;20456;-57
2022/03/21 09:34:12;;;;;;;15.83;13.97;;;10.90;41.40;;;;;;5035153;28;20463;-57
2022/03/21 09:36:39;;;;;;;19.43;14.90;;;11.00;41.10;;;;;;5036159;28;20455;-59
2022/03/21 09:39:08;;;;;;;19.77;14.93;;;11.10;41.00;;;;;;5035214;28;20796;-60
2022/03/21 09:41:36;;;;;;;16.77;13.80;;;11.20;40.80;;;;;;5039130;28;20550;-57
2022/03/21 09:44:07;;;;;;;18.07;15.13;;;11.30;40.80;;;;;;5034299;28;20453;-57
2022/03/21 09:46:35;;;;;;;16.53;14.40;;;11.30;40.70;;;;;;5035249;28;20430;-57
2022/03/21 09:49:04;;;;;;;20.30;15.07;;;11.50;40.60;;;;;;5034893;28;20456;-58
2022/03/21 09:51:32;;;;;;;19.52;15.13;;;11.50;40.30;;;;;;5033164;28;20469;-57
2022/03/21 09:54:00;;;;;;;18.43;16.40;;;11.60;40.00;;;;;;5035062;28;20213;-57
2022/03/21 09:56:28;;;;;;;20.60;15.45;;;11.60;39.80;;;;;;5034260;28;20800;-57
2022/03/21 09:58:59;;;;;;;21.43;15.97;;;11.70;39.90;;;;;;5034175;28;20203;-57
2022/03/21 10:01:26;;;;;;;17.30;14.40;;;11.80;39.80;;;;;;5035369;28;20473;-60
2022/03/21 10:03:55;;;;;;;15.00;13.40;;;12.10;39.80;;;;;;5035190;28;20449;-60
2022/03/21 10:06:31;;;;;;;15.93;12.80;;;12.20;39.40;;;;;;5034015;28;20467;-57
2022/03/21 10:09:10;;;;;;;16.37;13.50;;;12.30;39.10;;;;;;5034888;28;20445;-56
2022/03/21 10:11:39;;;;;;;19.20;14.03;;;12.40;39.00;;;;;;5034915;28;20429;-54
2022/03/21 10:14:29;;;;;;;15.97;14.27;;;12.60;38.90;;;;;;5033997;28;20460;-56
2022/03/21 10:16:58;;;;;;;17.87;13.70;;;12.80;38.70;;;;;;5035724;28;20738;-56
2022/03/21 10:19:27;;;;;;;17.73;14.07;;;12.90;38.40;;;;;;5033084;28;20441;-59
2022/03/21 10:22:05;;;;;;;17.57;14.43;;;13.00;38.10;;;;;;5034317;28;20453;-58
2022/03/21 10:24:37;;;;;;;19.10;15.33;;;13.00;38.10;;;;;;5034485;28;20468;-58
2022/03/21 10:27:05;;;;;;;17.67;13.70;;;13.00;38.10;;;;;;5034228;28;20445;-58
2022/03/21 10:29:32;;;;;;;17.27;14.93;;;13.00;37.90;;;;;;5033411;28;20864;-57
2022/03/21 10:32:00;;;;;;;16.77;14.50;;;13.00;37.90;;;;;;5033533;28;20472;-56
2022/03/21 10:34:33;;;;;;;17.60;14.47;;;13.00;37.90;;;;;;5033924;28;20473;-56
2022/03/21 10:37:03;;;;;;;17.13;14.00;;;13.10;37.90;;;;;;5033916;28;20437;-55
2022/03/21 10:39:32;;;;;;;18.37;15.60;;;13.10;37.80;;;;;;5034425;28;20496;-56
2022/03/21 10:42:01;;;;;;;16.43;14.30;;;13.10;37.70;;;;;;5033279;28;20835;-57
2022/03/21 10:44:28;;;;;;;18.53;15.90;;;13.20;37.80;;;;;;5034160;28;20461;-57
2022/03/21 10:46:58;;;;;;;15.63;13.93;;;13.20;37.70;;;;;;5034087;28;20449;-58
2022/03/21 10:49:33;;;;;;;18.37;14.87;;;13.30;37.80;;;;;;5033170;28;20481;-54
2022/03/21 10:52:01;;;;;;;19.27;13.73;;;13.40;37.80;;;;;;5034176;28;20429;-57
2022/03/21 10:54:38;;;;;;;17.70;15.23;;;13.50;37.70;;;;;;5033627;28;20483;-55
2022/03/21 10:57:07;;;;;;;19.23;15.23;;;13.70;37.70;;;;;;5032978;28;20956;-56
2022/03/21 10:59:35;;;;;;;17.50;14.27;;;13.80;37.40;;;;;;5033993;28;20449;-56
2022/03/21 11:02:13;;;;;;;18.67;15.70;;;13.80;37.20;;;;;;5033507;28;20955;-56
2022/03/21 11:04:44;;;;;;;17.17;13.80;;;13.90;37.40;;;;;;5032647;28;20477;-57
2022/03/21 11:07:14;;;;;;;15.80;14.10;;;13.90;37.10;;;;;;5033897;28;20468;-56
2022/03/21 11:09:42;;;;;;;19.10;15.47;;;14.00;37.20;;;;;;5033622;28;21008;-57
2022/03/21 11:12:11;;;;;;;23.47;16.63;;;14.00;37.00;;;;;;5032835;28;20455;-56
2022/03/21 11:14:40;;;;;;;18.43;14.77;;;13.80;36.50;;;;;;5033583;28;20461;-56
2022/03/21 11:17:08;;;;;;;19.00;15.90;;;13.70;36.60;;;;;;5033107;28;20786;-56
2022/03/21 11:19:36;;;;;;;19.47;15.60;;;13.70;36.80;;;;;;5032683;28;20544;-56
2022/03/21 11:22:05;;;;;;;20.97;16.63;;;13.80;36.70;;;;;;5032999;28;20447;-56
2022/03/21 11:24:34;;;;;;;16.70;15.03;;;13.90;36.60;;;;;;5033317;28;20534;-56
2022/03/21 11:27:15;;;;;;;16.53;14.70;;;13.90;36.40;;;;;;5032121;28;20492;-55
2022/03/21 11:29:58;;;;;;;17.00;14.90;;;14.00;37.00;;;;;;5033210;28;20492;-59
2022/03/21 11:32:35;;;;;;;17.37;14.10;;;14.00;36.30;;;;;;5032314;28;20429;-56
2022/03/21 11:35:08;;;;;;;15.67;13.33;;;14.00;36.40;;;;;;5033157;28;20487;-55
2022/03/21 11:37:37;;;;;;;17.07;15.37;;;14.10;36.60;;;;;;5033228;28;20432;-54
2022/03/21 11:40:29;;;;;;;17.53;15.17;;;14.20;36.50;;;;;;5033669;28;20442;-56
2022/03/21 11:43:17;;;;;;;16.83;14.77;;;14.20;36.40;;;;;;5037404;28;20453;-56
2022/03/21 11:45:45;;;;;;;16.53;14.70;;;14.30;36.30;;;;;;5032991;28;20511;-55
2022/03/21 11:48:35;;;;;;;16.10;14.50;;;14.50;36.20;;;;;;5033392;28;20441;-54
2022/03/21 11:51:35;;;;;;;16.03;14.43;;;14.60;35.80;;;;;;5046638;28;21022;-56
2022/03/21 11:54:06;;;;;;;18.00;16.00;;;14.70;35.70;;;;;;5053023;28;20435;-56
2022/03/21 11:57:10;;;;;;;21.73;16.13;;;14.70;35.70;;;;;;5053754;28;20428;-54
2022/03/21 12:00:00;;;;;;;17.43;15.00;;;14.80;35.60;;;;;;5033893;28;20421;-55
2022/03/21 12:02:56;;;;;;;16.40;14.60;;;14.80;35.50;;;;;;5034490;28;20425;-55
2022/03/21 12:05:53;;;;;;;18.20;16.40;;;15.00;35.70;;;;;;5032808;28;20473;-55
2022/03/21 12:08:56;;;;;;;20.30;15.00;;;15.10;35.40;;;;;;5032805;28;20433;-55
2022/03/21 12:12:03;;;;;;;17.70;15.90;;;15.00;35.10;;;;;;5033026;28;20592;-55
2022/03/21 12:14:40;;;;;;;17.67;14.20;;;15.10;35.30;;;;;;5037307;28;20467;-56
2022/03/21 12:17:40;;;;;;;19.70;15.77;;;15.10;35.30;;;;;;5045150;28;20445;-56
2022/03/21 12:20:10;;;;;;;18.23;15.80;;;15.10;35.40;;;;;;5032736;28;20441;-55
2022/03/21 12:22:43;;;;;;;22.97;15.47;;;15.20;35.30;;;;;;5031788;28;20441;-55
2022/03/21 12:25:16;;;;;;;20.07;14.70;;;15.20;35.10;;;;;;5031692;28;20496;-55
2022/03/21 12:27:44;;;;;;;18.07;16.00;;;15.30;35.10;;;;;;5032279;28;20440;-57
2022/03/21 12:30:39;;;;;;;17.30;15.07;;;15.30;35.10;;;;;;5034629;28;20488;-56
2022/03/21 12:33:30;;;;;;;19.33;16.27;;;15.40;35.20;;;;;;5035714;28;20452;-56
2022/03/21 12:36:07;;;;;;;18.03;15.73;;;15.40;35.00;;;;;;5036626;28;20465;-55
2022/03/21 12:38:39;;;;;;;18.90;16.60;;;15.40;34.90;;;;;;5036964;28;20535;-56
2022/03/21 12:41:13;;;;;;;22.60;17.83;;;15.50;35.00;;;;;;5036619;28;20516;-55
2022/03/21 12:43:51;;;;;;;18.33;16.43;;;15.50;34.80;;;;;;5035775;28;20436;-56
2022/03/21 12:46:21;;;;;;;18.67;15.10;;;15.40;34.80;;;;;;5037138;28;20436;-56
2022/03/21 12:48:50;;;;;;;20.30;16.20;;;15.50;35.00;;;;;;5038664;28;20448;-55
2022/03/21 12:51:29;;;;;;;19.40;17.40;;;15.60;35.20;;;;;;5035723;28;20516;-55
2022/03/21 12:53:59;;;;;;;17.57;15.57;;;15.80;35.00;;;;;;5036485;28;20441;-54
2022/03/21 12:56:27;;;;;;;18.60;16.67;;;15.90;34.80;;;;;;5036503;28;20433;-53
2022/03/21 12:59:01;;;;;;;18.63;16.60;;;15.90;34.60;;;;;;5037047;28;20456;-55
2022/03/21 13:01:30;;;;;;;18.80;16.53;;;15.90;34.40;;;;;;5036584;28;20435;-54
2022/03/21 13:10:32;;;;;;;17.47;15.57;;;16.00;34.40;;;;;;5034968;28;20486;-55
2022/03/21 13:12:34;;;;;;;17.37;15.00;;;16.10;33.90;;;;;;5056659;28;20469;-54
2022/03/21 13:15:03;;;;;;;18.93;16.83;;;16.00;33.80;;;;;;5056840;28;20847;-55
2022/03/21 13:17:48;;;;;;;18.87;15.80;;;16.00;34.10;;;;;;5037925;28;20514;-55
2022/03/21 13:20:18;;;;;;;19.90;17.05;;;16.10;34.10;;;;;;5030679;28;20818;-56